createdAt,value
2018-11-23T00:00:15.112Z,32.23
2018-11-23T00:02:44.877Z,30.83
2018-11-23T00:05:13.571Z,31.30
2018-11-23T00:07:42.866Z,35.30
2018-11-23T00:10:13.543Z,31.17
2018-11-23T00:12:42.285Z,33.80
2018-11-23T00:15:13.494Z,32.97
2018-11-23T00:17:42.292Z,31.73
2018-11-23T00:20:16.218Z,37.60
2018-11-23T00:22:44.894Z,32.93
2018-11-23T00:25:15.842Z,34.83
2018-11-23T00:27:44.561Z,36.10
2018-11-23T00:30:17.704Z,28.47
2018-11-23T00:32:46.715Z,33.20
2018-11-23T00:35:17.109Z,34.00
2018-11-23T00:37:46.139Z,33.47
2018-11-23T00:40:24.090Z,39.00
2018-11-23T00:42:53.015Z,37.07
2018-11-23T00:45:21.843Z,35.73
2018-11-23T00:47:51.001Z,32.50
2018-11-23T00:50:20.798Z,36.27
2018-11-23T00:52:49.821Z,36.77
2018-11-23T00:55:19.542Z,37.70
2018-11-23T00:57:48.193Z,37.73
2018-11-23T01:00:20.381Z,39.20
2018-11-23T01:02:49.066Z,37.37
2018-11-23T01:05:18.533Z,35.40
2018-11-23T01:07:47.791Z,39.07
2018-11-23T01:10:17.807Z,39.90
2018-11-23T01:12:47.609Z,38.60
2018-11-23T01:15:16.363Z,37.40
2018-11-23T01:17:45.027Z,39.33
2018-11-23T01:20:16.889Z,40.47
2018-11-23T01:22:45.875Z,36.60
2018-11-23T01:25:15.702Z,36.30
2018-11-23T01:27:45.474Z,39.57
2018-11-23T01:30:18.348Z,37.83
2018-11-23T01:32:47.240Z,39.53
2018-11-23T01:35:15.886Z,40.13
2018-11-23T01:37:44.537Z,38.93
2018-11-23T01:40:15.687Z,52.60
2018-11-23T01:42:44.640Z,35.30
2018-11-23T01:45:13.774Z,40.07
2018-11-23T01:47:42.509Z,39.47
2018-11-23T01:50:15.327Z,40.27
2018-11-23T01:52:44.962Z,40.57
2018-11-23T01:55:14.182Z,42.97
2018-11-23T01:57:43.207Z,37.63
2018-11-23T02:00:14.625Z,44.53
2018-11-23T02:02:43.675Z,41.07
2018-11-23T02:05:12.393Z,40.27
2018-11-23T02:07:41.041Z,42.20
2018-11-23T02:10:11.162Z,41.07
2018-11-23T02:12:39.810Z,39.67
2018-11-23T02:15:11.044Z,42.03
2018-11-23T02:17:39.697Z,42.73
2018-11-23T02:20:10.558Z,40.47
2018-11-23T02:22:39.272Z,41.10
2018-11-23T02:25:08.015Z,43.63
2018-11-23T02:27:36.690Z,35.60
2018-11-23T02:30:09.340Z,38.57
2018-11-23T02:32:38.017Z,42.57
2018-11-23T02:35:06.675Z,37.97
2018-11-23T02:37:35.334Z,59.93
2018-11-23T02:40:04.030Z,37.50
2018-11-23T02:42:33.708Z,37.23
2018-11-23T02:45:02.319Z,36.63
2018-11-23T02:47:30.987Z,38.13
2018-11-23T02:49:59.634Z,42.10
2018-11-23T02:52:28.274Z,39.80
2018-11-23T02:54:56.889Z,38.27
2018-11-23T02:57:25.531Z,39.80
2018-11-23T02:59:54.153Z,40.07
2018-11-23T03:02:22.813Z,39.33
2018-11-23T03:04:51.464Z,38.70
2018-11-23T03:07:20.106Z,40.57
2018-11-23T03:09:48.754Z,43.73
2018-11-23T03:12:17.387Z,45.37
2018-11-23T03:14:45.989Z,40.30
2018-11-23T03:17:14.637Z,46.30
2018-11-23T03:19:43.258Z,44.30
2018-11-23T03:22:11.889Z,41.10
2018-11-23T03:24:40.524Z,36.97
2018-11-23T03:27:09.198Z,44.77
2018-11-23T03:29:37.819Z,38.80
2018-11-23T03:32:06.477Z,38.67
2018-11-23T03:34:35.093Z,41.50
2018-11-23T03:37:04.199Z,43.80
2018-11-23T03:39:34.118Z,40.03
2018-11-23T03:42:01.531Z,41.80
2018-11-23T03:44:30.143Z,42.50
2018-11-23T03:46:58.786Z,42.00
2018-11-23T03:49:27.389Z,41.60
2018-11-23T03:51:56.010Z,39.50
2018-11-23T03:54:24.627Z,42.53
2018-11-23T03:56:53.270Z,38.63
2018-11-23T03:59:21.884Z,42.30
2018-11-23T04:01:50.595Z,39.97
2018-11-23T04:04:19.246Z,40.90
2018-11-23T04:06:47.883Z,43.23
2018-11-23T04:09:16.510Z,44.40
2018-11-23T04:11:45.139Z,47.00
2018-11-23T04:14:13.774Z,42.40
2018-11-23T04:16:42.477Z,41.47
2018-11-23T04:19:11.125Z,44.20
2018-11-23T04:21:39.776Z,43.53
2018-11-23T04:24:08.415Z,43.43
2018-11-23T04:26:37.062Z,45.93
2018-11-23T04:29:06.020Z,40.83
2018-11-23T04:31:34.673Z,45.17
2018-11-23T04:34:03.426Z,44.17
2018-11-23T04:36:32.075Z,46.00
2018-11-23T04:39:00.715Z,48.50
2018-11-23T04:41:29.338Z,52.07
2018-11-23T04:43:57.951Z,44.90
2018-11-23T04:46:26.586Z,49.30
2018-11-23T04:48:55.242Z,47.83
2018-11-23T04:51:23.911Z,46.97
2018-11-23T04:53:52.525Z,46.83
2018-11-23T04:56:21.174Z,46.23
2018-11-23T04:58:50.083Z,45.50
2018-11-23T05:01:18.726Z,52.47
2018-11-23T05:03:47.388Z,47.60
2018-11-23T05:06:16.050Z,46.17
2018-11-23T05:08:45.178Z,50.57
2018-11-23T05:11:14.051Z,50.77
2018-11-23T05:13:42.667Z,49.63
2018-11-23T05:16:11.314Z,56.97
2018-11-23T05:18:39.945Z,53.03
2018-11-23T05:21:08.585Z,51.93
2018-11-23T05:23:37.189Z,49.13
2018-11-23T05:26:06.261Z,45.73
2018-11-23T05:28:34.884Z,51.73
2018-11-23T05:31:03.587Z,44.50
2018-11-23T05:33:32.239Z,51.87
2018-11-23T05:36:01.134Z,55.33
2018-11-23T05:38:29.923Z,49.17
2018-11-23T05:40:58.559Z,54.80
2018-11-23T05:43:27.189Z,56.00
2018-11-23T05:45:55.816Z,45.93
2018-11-23T05:48:26.930Z,49.50
2018-11-23T05:50:53.175Z,49.20
2018-11-23T05:53:21.803Z,51.53
2018-11-23T05:55:50.454Z,51.27
2018-11-23T05:58:19.090Z,50.80
2018-11-23T06:00:47.710Z,50.07
2018-11-23T06:03:16.412Z,46.87
2018-11-23T06:05:45.067Z,45.43
2018-11-23T06:08:13.688Z,47.90
2018-11-23T06:10:42.324Z,41.37
2018-11-23T06:13:10.962Z,42.13
2018-11-23T06:15:44.362Z,40.67
2018-11-23T06:18:08.321Z,40.23
2018-11-23T06:20:36.923Z,41.60
2018-11-23T06:23:05.613Z,43.27
2018-11-23T06:25:38.397Z,41.07
2018-11-23T06:28:07.073Z,37.83
2018-11-23T06:30:35.709Z,37.47
2018-11-23T06:33:15.726Z,36.57
2018-11-23T06:35:44.337Z,39.10
2018-11-23T06:38:12.953Z,42.20
2018-11-23T06:40:41.587Z,35.03
2018-11-23T06:43:10.333Z,41.67
2018-11-23T06:45:40.703Z,36.57
2018-11-23T06:48:10.195Z,33.77
2018-11-23T06:50:38.861Z,36.57
2018-11-23T06:53:07.748Z,43.67
2018-11-23T06:55:36.525Z,36.27
2018-11-23T06:58:05.343Z,36.50
2018-11-23T07:00:34.002Z,38.60
2018-11-23T07:03:02.783Z,36.27
2018-11-23T07:05:31.428Z,35.47
2018-11-23T07:08:00.112Z,39.97
2018-11-23T07:10:28.758Z,43.07
2018-11-23T07:12:57.380Z,41.13
2018-11-23T07:15:26.022Z,36.30
2018-11-23T07:17:54.647Z,40.47
2018-11-23T07:20:23.321Z,34.07
2018-11-23T07:22:51.958Z,44.50
2018-11-23T07:25:20.621Z,37.77
2018-11-23T07:27:49.258Z,35.40
2018-11-23T07:30:26.312Z,35.30
2018-11-23T07:32:55.018Z,40.70
2018-11-23T07:35:23.659Z,37.90
2018-11-23T07:37:52.339Z,39.90
2018-11-23T07:40:34.962Z,38.20
2018-11-23T07:43:09.986Z,43.57
2018-11-23T07:45:38.642Z,42.43
2018-11-23T07:48:07.969Z,39.67
2018-11-23T07:50:36.611Z,42.57
2018-11-23T07:53:05.375Z,39.43
2018-11-23T07:55:34.019Z,38.80
2018-11-23T07:58:03.300Z,37.50
2018-11-23T08:00:31.946Z,34.10
2018-11-23T08:03:00.564Z,39.57
2018-11-23T08:05:29.236Z,36.80
2018-11-23T08:07:57.875Z,35.63
2018-11-23T08:10:25.722Z,40.03
2018-11-23T08:12:54.330Z,35.90
2018-11-23T08:15:24.282Z,34.30
2018-11-23T08:17:52.931Z,37.10
2018-11-23T08:20:22.866Z,37.03
2018-11-23T08:22:51.553Z,39.77
2018-11-23T08:25:21.285Z,39.23
2018-11-23T08:27:51.052Z,42.70
2018-11-23T08:30:23.471Z,40.03
2018-11-23T08:32:52.136Z,43.53
2018-11-23T08:35:20.960Z,39.53
2018-11-23T08:37:49.573Z,38.90
2018-11-23T08:40:20.331Z,48.43
2018-11-23T08:42:49.714Z,41.57
2018-11-23T08:45:20.254Z,42.67
2018-11-23T08:47:48.981Z,38.60
2018-11-23T08:50:22.062Z,36.10
2018-11-23T08:52:50.735Z,36.97
2018-11-23T08:55:19.694Z,43.03
2018-11-23T08:57:48.315Z,42.23
2018-11-23T09:00:20.895Z,40.37
2018-11-23T09:02:50.766Z,41.70
2018-11-23T09:05:19.510Z,42.30
2018-11-23T09:07:49.174Z,40.50
2018-11-23T09:10:22.314Z,44.10
2018-11-23T09:12:53.586Z,42.33
2018-11-23T09:15:22.216Z,38.57
2018-11-23T09:17:50.858Z,46.03
2018-11-23T09:20:19.805Z,40.57
2018-11-23T09:22:48.442Z,40.63
2018-11-23T09:25:19.282Z,42.87
2018-11-23T09:27:47.959Z,37.47
2018-11-23T09:30:23.582Z,43.90
2018-11-23T09:32:53.006Z,43.93
2018-11-23T09:35:21.655Z,45.20
2018-11-23T09:37:50.706Z,38.13
2018-11-23T09:40:20.768Z,41.50
2018-11-23T09:42:49.652Z,40.17
2018-11-23T09:45:19.652Z,44.77
2018-11-23T09:47:49.320Z,44.53
2018-11-23T09:50:19.915Z,48.03
2018-11-23T09:52:50.155Z,38.73
2018-11-23T09:55:18.933Z,41.13
2018-11-23T09:57:47.542Z,39.27
2018-11-23T10:00:25.390Z,44.80
2018-11-23T10:02:54.946Z,44.17
2018-11-23T10:05:24.335Z,36.57
2018-11-23T10:07:54.551Z,37.27
2018-11-23T10:10:23.867Z,37.27
2018-11-23T10:12:52.559Z,36.30
2018-11-23T10:15:21.982Z,33.07
2018-11-23T10:17:50.636Z,35.87
2018-11-23T10:20:24.302Z,35.43
2018-11-23T10:22:52.944Z,31.00
2018-11-23T10:25:22.891Z,34.77
2018-11-23T10:27:51.518Z,33.40
2018-11-23T10:30:23.443Z,36.67
2018-11-23T10:32:53.207Z,39.77
2018-11-23T10:35:21.894Z,31.23
2018-11-23T10:37:51.863Z,33.13
2018-11-23T10:40:22.667Z,33.77
2018-11-23T10:42:51.402Z,34.00
2018-11-23T10:45:22.119Z,33.90
2018-11-23T10:47:51.466Z,32.57
2018-11-23T10:50:21.347Z,36.17
2018-11-23T10:52:50.087Z,29.77
2018-11-23T10:55:20.531Z,29.87
2018-11-23T10:57:49.336Z,29.53
2018-11-23T11:00:23.788Z,32.63
2018-11-23T11:02:58.834Z,30.53
2018-11-23T11:05:32.654Z,29.77
2018-11-23T11:08:02.518Z,37.27
2018-11-23T11:10:31.208Z,35.70
2018-11-23T11:12:59.858Z,36.40
2018-11-23T11:15:28.473Z,32.70
2018-11-23T11:17:57.129Z,32.20
2018-11-23T11:20:25.773Z,32.73
2018-11-23T11:22:54.436Z,30.10
2018-11-23T11:25:23.076Z,31.30
2018-11-23T11:27:51.721Z,29.80
2018-11-23T11:30:20.669Z,28.63
2018-11-23T11:32:49.746Z,35.37
2018-11-23T11:35:18.367Z,29.67
2018-11-23T11:37:46.999Z,31.53
2018-11-23T11:40:17.118Z,28.43
2018-11-23T11:42:45.906Z,30.30
2018-11-23T11:45:15.859Z,28.17
2018-11-23T11:47:45.058Z,27.80
2018-11-23T11:50:14.141Z,29.07
2018-11-23T11:52:43.982Z,29.03
2018-11-23T11:55:14.466Z,28.97
2018-11-23T11:57:43.570Z,32.20
2018-11-23T12:00:14.102Z,31.03
2018-11-23T12:02:42.775Z,30.43
2018-11-23T12:05:12.270Z,31.00
2018-11-23T12:07:41.209Z,28.97
2018-11-23T12:10:12.405Z,30.93
2018-11-23T12:12:41.048Z,30.37
2018-11-23T12:15:10.830Z,31.00
2018-11-23T12:17:39.841Z,31.67
2018-11-23T12:20:10.964Z,27.23
2018-11-23T12:22:39.666Z,27.37
2018-11-23T12:25:08.327Z,29.93
2018-11-23T12:27:37.018Z,26.83
2018-11-23T12:30:09.831Z,25.97
2018-11-23T12:32:38.525Z,28.47
2018-11-23T12:35:08.322Z,25.37
2018-11-23T12:37:36.950Z,27.13
2018-11-23T12:40:06.976Z,26.03
2018-11-23T12:42:35.609Z,27.60
2018-11-23T12:45:04.444Z,26.13
2018-11-23T12:47:33.142Z,29.47
2018-11-23T12:50:01.750Z,32.70
2018-11-23T12:52:30.394Z,25.63
2018-11-23T12:54:59.001Z,23.53
2018-11-23T12:57:27.703Z,24.37
2018-11-23T12:59:56.319Z,27.67
2018-11-23T13:02:24.979Z,26.97
2018-11-23T13:04:53.598Z,30.40
2018-11-23T13:07:22.262Z,28.90
2018-11-23T13:09:50.930Z,27.20
2018-11-23T13:12:19.579Z,27.97
2018-11-23T13:14:48.201Z,23.67
2018-11-23T13:17:16.838Z,24.73
2018-11-23T13:19:45.491Z,29.23
2018-11-23T13:22:14.120Z,32.50
2018-11-23T13:24:42.774Z,36.63
2018-11-23T13:27:14.475Z,31.33
2018-11-23T13:29:43.363Z,35.77
2018-11-23T13:32:11.991Z,33.03
2018-11-23T13:34:40.642Z,30.10
2018-11-23T13:37:09.279Z,31.37
2018-11-23T13:39:37.986Z,29.63
2018-11-23T13:42:06.705Z,25.07
2018-11-23T13:44:35.579Z,28.23
2018-11-23T13:47:04.247Z,31.63
2018-11-23T13:49:32.894Z,25.57
2018-11-23T13:52:01.553Z,27.13
2018-11-23T13:54:30.158Z,26.90
2018-11-23T13:56:58.795Z,28.57
2018-11-23T13:59:27.420Z,29.80
2018-11-23T14:01:56.085Z,30.13
2018-11-23T14:04:24.722Z,26.67
2018-11-23T14:06:53.431Z,30.43
2018-11-23T14:09:22.117Z,25.23
2018-11-23T14:11:50.755Z,27.63
2018-11-23T14:14:19.405Z,27.87
2018-11-23T14:16:48.026Z,27.97
2018-11-23T14:19:16.634Z,31.40
2018-11-23T14:21:45.284Z,29.43
2018-11-23T14:24:13.898Z,32.73
2018-11-23T14:26:42.548Z,29.10
2018-11-23T14:29:11.196Z,30.80
2018-11-23T14:31:39.839Z,30.70
2018-11-23T14:34:08.495Z,29.63
2018-11-23T14:36:37.140Z,30.57
2018-11-23T14:39:07.813Z,26.70
2018-11-23T14:41:36.748Z,28.40
2018-11-23T14:44:06.939Z,29.10
2018-11-23T14:46:34.177Z,31.70
2018-11-23T14:49:02.817Z,25.83
2018-11-23T14:51:31.450Z,26.93
2018-11-23T14:54:00.124Z,29.83
2018-11-23T14:56:28.784Z,29.80
2018-11-23T14:58:57.411Z,32.00
2018-11-23T15:01:26.262Z,44.27
2018-11-23T15:03:54.902Z,32.53
2018-11-23T15:06:23.529Z,30.87
2018-11-23T15:08:55.738Z,29.17
2018-11-23T15:11:24.489Z,30.43
2018-11-23T15:13:53.151Z,27.83
2018-11-23T15:16:21.814Z,28.63
2018-11-23T15:18:50.481Z,28.90
2018-11-23T15:21:19.082Z,30.07
2018-11-23T15:23:47.724Z,30.43
2018-11-23T15:26:16.381Z,30.93
2018-11-23T15:28:45.026Z,29.27
2018-11-23T15:31:13.670Z,30.07
2018-11-23T15:33:42.304Z,27.03
2018-11-23T15:36:17.650Z,28.63
2018-11-23T15:38:46.286Z,28.97
2018-11-23T15:41:14.971Z,26.07
2018-11-23T15:43:43.585Z,29.03
2018-11-23T15:46:12.237Z,27.83
2018-11-23T15:48:40.862Z,27.97
2018-11-23T15:51:10.588Z,28.23
2018-11-23T15:53:39.242Z,28.73
2018-11-23T15:56:07.923Z,29.33
2018-11-23T15:58:36.567Z,30.83
2018-11-23T16:01:05.450Z,29.90
2018-11-23T16:03:34.155Z,28.73
2018-11-23T16:06:02.886Z,29.07
2018-11-23T16:08:31.552Z,26.00
2018-11-23T16:11:00.245Z,30.27
2018-11-23T16:13:28.875Z,25.67
2018-11-23T16:15:57.540Z,27.23
2018-11-23T16:18:26.156Z,34.43
2018-11-23T16:20:54.853Z,31.03
2018-11-23T16:23:23.515Z,31.33
2018-11-23T16:25:58.493Z,27.00
2018-11-23T16:28:27.125Z,30.97
2018-11-23T16:30:55.771Z,27.33
2018-11-23T16:33:28.030Z,30.17
2018-11-23T16:35:56.682Z,29.97
2018-11-23T16:38:25.510Z,29.10
2018-11-23T16:40:56.481Z,32.93
2018-11-23T16:43:25.130Z,33.80
2018-11-23T16:45:53.793Z,30.30
2018-11-23T16:48:22.946Z,28.57
2018-11-23T16:50:51.595Z,27.07
2018-11-23T16:53:20.220Z,28.67
2018-11-23T16:55:55.140Z,30.03
2018-11-23T16:58:23.798Z,26.03
2018-11-23T17:00:52.688Z,28.07
2018-11-23T17:03:22.331Z,27.23
2018-11-23T17:05:54.251Z,30.03
2018-11-23T17:08:22.932Z,30.00
2018-11-23T17:10:51.666Z,27.17
2018-11-23T17:13:20.325Z,27.73
2018-11-23T17:15:49.051Z,28.60
2018-11-23T17:18:17.698Z,32.83
2018-11-23T17:20:46.333Z,28.33
2018-11-23T17:23:15.035Z,31.63
2018-11-23T17:25:43.722Z,33.47
2018-11-23T17:28:12.772Z,30.10
2018-11-23T17:30:41.493Z,34.47
2018-11-23T17:33:10.129Z,32.00
2018-11-23T17:35:38.762Z,28.93
2018-11-23T17:38:07.387Z,33.87
2018-11-23T17:40:37.831Z,28.17
2018-11-23T17:43:06.733Z,31.10
2018-11-23T17:45:35.526Z,34.20
2018-11-23T17:48:04.142Z,33.33
2018-11-23T17:50:34.035Z,36.60
2018-11-23T17:53:02.746Z,37.17
2018-11-23T17:55:31.421Z,30.20
2018-11-23T17:58:00.152Z,38.13
2018-11-23T18:00:29.960Z,36.57
2018-11-23T18:02:59.493Z,41.03
2018-11-23T18:05:28.923Z,34.17
2018-11-23T18:07:57.875Z,39.27
2018-11-23T18:10:27.929Z,41.53
2018-11-23T18:12:57.189Z,43.40
2018-11-23T18:15:27.129Z,45.07
2018-11-23T18:17:56.843Z,38.03
2018-11-23T18:20:26.526Z,42.47
2018-11-23T18:22:56.046Z,37.93
2018-11-23T18:25:26.306Z,33.20
2018-11-23T18:28:00.382Z,38.13
2018-11-23T18:30:31.186Z,37.13
2018-11-23T18:33:00.400Z,35.60
2018-11-23T18:35:29.183Z,37.73
2018-11-23T18:37:57.878Z,38.63
2018-11-23T18:40:27.417Z,35.30
2018-11-23T18:42:56.617Z,34.97
2018-11-23T18:45:26.428Z,38.73
2018-11-23T18:47:55.146Z,31.60
2018-11-23T18:50:24.930Z,30.27
2018-11-23T18:52:53.596Z,32.13
2018-11-23T18:55:22.376Z,30.33
2018-11-23T18:57:51.216Z,32.23
2018-11-23T19:00:19.932Z,32.23
2018-11-23T19:02:48.718Z,29.03
2018-11-23T19:05:22.304Z,34.03
2018-11-23T19:07:50.956Z,31.40
2018-11-23T19:10:19.729Z,29.47
2018-11-23T19:12:48.390Z,33.00
2018-11-23T19:15:25.180Z,29.70
2018-11-23T19:17:46.918Z,33.43
2018-11-23T19:20:19.510Z,28.40
2018-11-23T19:22:49.391Z,35.33
2018-11-23T19:25:18.093Z,30.63
2018-11-23T19:27:46.758Z,31.80
2018-11-23T19:30:16.656Z,29.13
2018-11-23T19:32:45.380Z,29.37
2018-11-23T19:35:14.100Z,34.03
2018-11-23T19:37:42.768Z,33.17
2018-11-23T19:40:15.395Z,34.97
2018-11-23T19:42:44.794Z,38.87
2018-11-23T19:45:14.412Z,34.43
2018-11-23T19:47:43.106Z,33.10
2018-11-23T19:50:16.438Z,38.63
2018-11-23T19:52:45.164Z,32.27
2018-11-23T19:55:14.775Z,39.63
2018-11-23T19:57:43.398Z,36.87
2018-11-23T20:00:14.442Z,36.53
2018-11-23T20:02:43.110Z,38.00
2018-11-23T20:05:11.787Z,40.43
2018-11-23T20:07:40.446Z,35.13
2018-11-23T20:10:11.387Z,33.43
2018-11-23T20:12:40.097Z,35.60
2018-11-23T20:15:11.245Z,40.07
2018-11-23T20:17:46.587Z,35.57
2018-11-23T20:20:15.958Z,40.53
2018-11-23T20:22:45.021Z,36.77
2018-11-23T20:25:17.980Z,31.50
2018-11-23T20:27:47.213Z,38.67
2018-11-23T20:30:16.668Z,35.67
2018-11-23T20:32:45.507Z,41.53
2018-11-23T20:35:16.255Z,41.47
2018-11-23T20:37:44.934Z,38.70
2018-11-23T20:40:17.664Z,38.17
2018-11-23T20:42:46.359Z,40.80
2018-11-23T20:45:15.151Z,39.03
2018-11-23T20:47:43.811Z,42.67
2018-11-23T20:50:13.625Z,45.97
2018-11-23T20:52:42.297Z,46.40
2018-11-23T20:55:13.082Z,56.40
2018-11-23T20:57:41.782Z,48.03
2018-11-23T21:00:13.710Z,43.03
2018-11-23T21:02:45.401Z,37.97
2018-11-23T21:05:15.989Z,36.53
2018-11-23T21:07:44.658Z,38.70
2018-11-23T21:10:20.233Z,37.10
2018-11-23T21:12:48.140Z,39.10
2018-11-23T21:15:27.459Z,39.90
2018-11-23T21:17:56.871Z,37.57
2018-11-23T21:20:25.566Z,40.20
2018-11-23T21:22:54.245Z,31.77
2018-11-23T21:25:22.887Z,35.60
2018-11-23T21:27:51.653Z,36.50
2018-11-23T21:30:22.606Z,36.07
2018-11-23T21:32:51.880Z,37.07
2018-11-23T21:35:20.508Z,41.80
2018-11-23T21:37:49.189Z,36.43
2018-11-23T21:40:17.966Z,40.90
2018-11-23T21:42:46.627Z,34.37
2018-11-23T21:45:17.076Z,37.20
2018-11-23T21:47:45.761Z,39.47
2018-11-23T21:50:16.523Z,38.13
2018-11-23T21:52:45.210Z,41.97
2018-11-23T21:55:17.753Z,39.13
2018-11-23T21:57:46.398Z,37.27
2018-11-23T22:00:15.920Z,41.10
2018-11-23T22:02:44.662Z,35.87
2018-11-23T22:05:13.363Z,38.53
2018-11-23T22:07:42.054Z,36.67
2018-11-23T22:10:18.107Z,34.87
2018-11-23T22:12:46.897Z,36.37
2018-11-23T22:15:17.743Z,37.67
2018-11-23T22:17:46.864Z,38.97
2018-11-23T22:20:16.690Z,35.63
2018-11-23T22:22:45.346Z,37.57
2018-11-23T22:25:15.015Z,39.43
2018-11-23T22:27:43.904Z,34.50
2018-11-23T22:30:15.909Z,37.17
2018-11-23T22:32:44.601Z,34.77
2018-11-23T22:35:13.639Z,33.57
2018-11-23T22:37:42.287Z,35.87
2018-11-23T22:40:14.070Z,37.97
2018-11-23T22:42:46.934Z,33.37
2018-11-23T22:45:16.439Z,34.03
2018-11-23T22:47:45.168Z,36.87
2018-11-23T22:50:16.929Z,38.57
2018-11-23T22:52:45.558Z,38.43
2018-11-23T22:55:15.845Z,35.07
2018-11-23T22:57:44.610Z,34.90
2018-11-23T23:00:55.882Z,32.10
2018-11-23T23:03:24.539Z,32.97
2018-11-23T23:05:53.187Z,33.83
2018-11-23T23:08:21.803Z,38.20
2018-11-23T23:10:50.453Z,40.30
2018-11-23T23:13:19.148Z,41.73
2018-11-23T23:15:47.785Z,38.63
2018-11-23T23:18:16.409Z,34.27
2018-11-23T23:20:45.043Z,33.10
2018-11-23T23:23:20.163Z,30.50
2018-11-23T23:25:48.793Z,30.73
2018-11-23T23:28:17.526Z,33.87
2018-11-23T23:30:46.187Z,33.37
2018-11-23T23:33:14.782Z,36.50
2018-11-23T23:35:43.422Z,35.33
2018-11-23T23:38:12.037Z,31.93
2018-11-23T23:40:40.705Z,29.00
2018-11-23T23:43:09.338Z,30.50
2018-11-23T23:45:37.973Z,36.63
2018-11-23T23:48:06.614Z,36.93
2018-11-23T23:50:35.251Z,32.37
2018-11-23T23:53:03.869Z,35.17
2018-11-23T23:55:32.515Z,31.20
2018-11-23T23:58:01.120Z,32.00
